Time;durP1;ratioP1;P1;durP2;ratioP2;P2;SDS_P1;SDS_P2;PMS_P1;PMS_P2;Temp;Humidity;BMP_temperature;BMP_pressure;BME280_temperature;BME280_humidity;BME280_pressure;Samples;Min_cycle;Max_cycle;Signal;HPM_P1;HPM_P2
2021/04/20 00:01:04;;;;;;;;;;;6.00;99.90;;;;;;10505557;28;19936;-86
2021/04/20 00:06:06;;;;;;;;;;;5.90;99.90;;;;;;10471799;28;19991;-86
2021/04/20 00:11:09;;;;;;;;;;;6.00;99.90;;;;;;10396472;28;19932;-86
2021/04/20 00:16:11;;;;;;;;;;;6.20;99.90;;;;;;10413182;28;19932;-86
2021/04/20 00:21:12;;;;;;;;;;;6.00;99.90;;;;;;10394282;28;19932;-86
2021/04/20 00:26:13;;;;;;;;;;;5.90;99.90;;;;;;10331925;28;19932;-87
2021/04/20 00:31:15;;;;;;;;;;;6.20;99.90;;;;;;10332411;28;19968;-86
2021/04/20 00:36:16;;;;;;;;;;;5.80;99.90;;;;;;10337447;28;20060;-86
2021/04/20 00:41:18;;;;;;;;;;;5.80;99.90;;;;;;10408165;28;19926;-86
2021/04/20 00:46:20;;;;;;;;;;;5.70;99.90;;;;;;10354529;28;19932;-86
2021/04/20 00:51:22;;;;;;;;;;;5.50;99.90;;;;;;10354879;28;19930;-86
2021/04/20 00:56:23;;;;;;;;;;;5.60;99.90;;;;;;10379071;28;19931;-86
2021/04/20 01:01:24;;;;;;;;;;;5.60;99.90;;;;;;10412091;28;19972;-87
2021/04/20 01:06:26;;;;;;;;;;;5.50;99.90;;;;;;10394943;28;19925;-86
2021/04/20 01:11:27;;;;;;;;;;;5.50;99.90;;;;;;10383976;28;19932;-86
2021/04/20 01:16:29;;;;;;;;;;;6.40;99.90;;;;;;10388448;28;20287;-86
2021/04/20 01:21:32;;;;;;;;;;;5.30;99.90;;;;;;10412156;28;19965;-86
2021/04/20 01:26:34;;;;;;;;;;;5.40;99.90;;;;;;10410663;28;19932;-86
2021/04/20 01:31:37;;;;;;;;;;;5.30;99.90;;;;;;10411772;28;19932;-86
2021/04/20 01:36:39;;;;;;;;;;;5.20;99.90;;;;;;10412764;28;19925;-86
2021/04/20 01:41:41;;;;;;;;;;;6.30;99.90;;;;;;10384031;28;19926;-86
2021/04/20 01:46:43;;;;;;;;;;;5.10;99.90;;;;;;10352586;28;19935;-86
2021/04/20 01:51:44;;;;;;;;;;;5.10;99.90;;;;;;10366241;28;19968;-86
2021/04/20 01:56:46;;;;;;;;;;;5.10;99.90;;;;;;10347430;28;20295;-87
2021/04/20 02:01:48;;;;;;;;;;;6.40;99.90;;;;;;10410270;28;20444;-86
2021/04/20 02:06:51;;;;;;;;;;;5.00;99.90;;;;;;10392515;28;19925;-86
2021/04/20 02:11:52;;;;;;;;;;;5.70;99.90;;;;;;10409069;28;19947;-86
2021/04/20 02:16:56;;;;;;;;;;;5.40;99.90;;;;;;10409167;28;19929;-86
2021/04/20 02:21:58;;;;;;;;;;;4.80;99.90;;;;;;10408090;28;19933;-87
2021/04/20 02:26:59;;;;;;;;;;;4.70;99.90;;;;;;10399814;28;19926;-87
2021/04/20 02:32:00;;;;;;;;;;;4.70;99.90;;;;;;10408900;28;19932;-86
2021/04/20 02:37:02;;;;;;;;;;;4.70;99.90;;;;;;10392605;28;19977;-86
2021/04/20 02:42:04;;;;;;;;;;;4.70;99.90;;;;;;10407836;28;20429;-86
2021/04/20 02:47:06;;;;;;;;;;;4.60;99.90;;;;;;10407637;28;20413;-86
2021/04/20 02:52:12;;;;;;;;;;;5.30;99.90;;;;;;10407991;28;20407;-86
2021/04/20 02:57:13;;;;;;;;;;;4.60;99.90;;;;;;10408670;28;20391;-87
2021/04/20 03:02:16;;;;;;;;;;;4.60;99.90;;;;;;10406440;28;19925;-86
2021/04/20 03:07:17;;;;;;;;;;;5.50;99.90;;;;;;10531053;28;19924;-86
2021/04/20 03:12:20;;;;;;;;;;;4.50;99.90;;;;;;10563903;28;20007;-87
2021/04/20 03:17:21;;;;;;;;;;;4.70;99.90;;;;;;10584295;28;19927;-86
2021/04/20 03:22:24;;;;;;;;;;;4.90;99.90;;;;;;10588035;28;19967;-87
2021/04/20 03:27:26;;;;;;;;;;;4.30;99.90;;;;;;10571421;28;20003;-86
2021/04/20 03:32:27;;;;;;;;;;;4.30;99.90;;;;;;10570267;28;20441;-86
2021/04/20 03:37:34;;;;;;;;;;;4.30;99.90;;;;;;10531639;28;19981;-86
2021/04/20 03:42:37;;;;;;;;;;;4.20;99.90;;;;;;10588914;28;19924;-87
2021/04/20 03:47:41;;;;;;;;;;;4.30;99.90;;;;;;10588770;28;20007;-87
2021/04/20 03:52:44;;;;;;;;;;;4.50;99.90;;;;;;10569607;28;19977;-87
2021/04/20 03:57:46;;;;;;;;;;;4.30;99.90;;;;;;10587702;28;20376;-87
2021/04/20 04:02:47;;;;;;;;;;;4.30;99.90;;;;;;10553124;28;19924;-87
2021/04/20 04:07:51;;;;;;;;;;;4.20;99.90;;;;;;10510266;22;19928;-87
2021/04/20 04:12:55;;;;;;;;;;;4.20;99.90;;;;;;10496496;28;19925;-87
2021/04/20 04:17:57;;;;;;;;;;;4.10;99.90;;;;;;10495115;28;19947;-87
2021/04/20 04:23:01;;;;;;;;;;;4.10;99.90;;;;;;10495434;28;19924;-87
2021/04/20 04:28:05;;;;;;;;;;;4.10;99.90;;;;;;10493918;28;19934;-87
2021/04/20 04:33:07;;;;;;;;;;;4.10;99.90;;;;;;10481660;28;19931;-87
2021/04/20 04:38:08;;;;;;;;;;;4.10;99.90;;;;;;10455203;28;19924;-87
2021/04/20 04:43:10;;;;;;;;;;;4.00;99.90;;;;;;10493165;28;20404;-87
2021/04/20 04:48:12;;;;;;;;;;;4.10;99.90;;;;;;10494504;28;19924;-87
2021/04/20 04:53:14;;;;;;;;;;;5.10;99.90;;;;;;10478937;28;20023;-87
2021/04/20 04:58:17;;;;;;;;;;;4.40;99.90;;;;;;10454084;28;19932;-87
2021/04/20 05:03:18;;;;;;;;;;;4.10;99.90;;;;;;10453319;28;19956;-87
2021/04/20 05:08:20;;;;;;;;;;;4.10;99.90;;;;;;10469431;28;20331;-87
2021/04/20 05:13:22;;;;;;;;;;;4.10;99.90;;;;;;10493545;28;19925;-87
2021/04/20 05:18:25;;;;;;;;;;;4.30;99.90;;;;;;10476059;28;20397;-88
2021/04/20 05:23:26;;;;;;;;;;;5.20;99.90;;;;;;10463347;28;19925;-87
2021/04/20 05:28:27;;;;;;;;;;;6.10;99.90;;;;;;10452176;28;20401;-87
2021/04/20 05:33:29;;;;;;;;;;;5.90;99.90;;;;;;10434874;28;20020;-87
2021/04/20 05:38:30;;;;;;;;;;;6.00;99.90;;;;;;10484553;28;19931;-87
2021/04/20 05:43:32;;;;;;;;;;;6.20;99.90;;;;;;10492843;28;19968;-87
2021/04/20 05:48:33;;;;;;;;;;;5.10;99.90;;;;;;10493823;28;19928;-87
2021/04/20 05:53:35;;;;;;;;;;;5.30;99.90;;;;;;10472272;28;20260;-87
2021/04/20 05:58:36;;;;;;;;;;;5.20;99.90;;;;;;10452307;28;19925;-87
2021/04/20 06:03:40;;;;;;;;;;;5.60;99.90;;;;;;10451268;28;19947;-87
2021/04/20 06:08:42;;;;;;;;;;;5.80;99.90;;;;;;10464834;28;20313;-87
2021/04/20 06:13:45;;;;;;;;;;;6.20;99.90;;;;;;10503279;27;19931;-87
2021/04/20 06:18:47;;;;;;;;;;;6.50;99.90;;;;;;10473527;28;20028;-87
2021/04/20 06:23:49;;;;;;;;;;;6.80;99.90;;;;;;10489915;27;19924;-87
2021/04/20 06:28:50;;;;;;;;;;;8.30;99.90;;;;;;10492696;28;19925;-88
2021/04/20 06:33:51;;;;;;;;;;;10.70;99.90;;;;;;10474737;28;19924;-88
2021/04/20 06:38:53;;;;;;;;;;;11.60;99.90;;;;;;10481461;28;19928;-89
2021/04/20 06:43:57;;;;;;;;;;;12.60;99.90;;;;;;10470209;27;20015;-88
2021/04/20 06:49:01;;;;;;;;;;;11.60;99.90;;;;;;10490820;28;19931;-88
2021/04/20 06:54:03;;;;;;;;;;;10.90;99.90;;;;;;10494575;28;19935;-87
2021/04/20 06:59:23;;;;;;;;;;;12.20;99.90;;;;;;10499764;28;19928;-87
2021/04/20 07:04:40;;;;;;;;;;;13.20;99.90;;;;;;10498350;27;19925;-87
2021/04/20 07:09:45;;;;;;;;;;;13.00;99.90;;;;;;10498681;28;19925;-87
2021/04/20 07:14:52;;;;;;;;;;;12.20;99.90;;;;;;10497793;28;20019;-87
2021/04/20 07:19:53;;;;;;;;;;;11.60;99.90;;;;;;10496971;28;20461;-87
2021/04/20 07:25:09;;;;;;;;;;;12.20;99.90;;;;;;10497753;27;20062;-88
2021/04/20 07:30:24;;;;;;;;;;;12.40;99.90;;;;;;10498294;28;19924;-88
2021/04/20 07:35:29;;;;;;;;;;;13.20;99.90;;;;;;10491996;28;19929;-88
2021/04/20 07:40:49;;;;;;;;;;;13.10;99.90;;;;;;10456351;28;20007;-88
2021/04/20 07:46:02;;;;;;;;;;;13.60;99.90;;;;;;10455773;28;19931;-88
2021/04/20 07:51:15;;;;;;;;;;;13.90;99.90;;;;;;10474613;28;19935;-88
2021/04/20 07:56:36;;;;;;;;;;;14.40;99.90;;;;;;10496041;28;19967;-88
2021/04/20 08:01:41;;;;;;;;;;;14.10;99.90;;;;;;10493820;28;20289;-88
2021/04/20 08:06:45;;;;;;;;;;;15.00;99.90;;;;;;10491000;27;19932;-88
2021/04/20 08:11:48;;;;;;;;;;;15.00;99.90;;;;;;10496302;28;20417;-87
2021/04/20 08:16:50;;;;;;;;;;;14.80;99.90;;;;;;10495072;28;19947;-87
2021/04/20 08:21:52;;;;;;;;;;;15.10;99.90;;;;;;10496537;28;19968;-87
2021/04/20 08:26:56;;;;;;;;;;;14.80;99.90;;;;;;10495429;28;20015;-88
2021/04/20 08:32:07;;;;;;;;;;;15.40;99.90;;;;;;10495505;28;19924;-87
2021/04/20 08:37:18;;;;;;;;;;;17.00;99.90;;;;;;10496195;28;19924;-86
2021/04/20 08:42:30;;;;;;;;;;;16.10;99.90;;;;;;10493329;28;19925;-86
2021/04/20 08:47:49;;;;;;;;;;;16.80;99.90;;;;;;10493501;28;19924;-86
2021/04/20 08:53:00;;;;;;;;;;;16.30;99.90;;;;;;10497987;28;19968;-85
2021/04/20 08:58:20;;;;;;;;;;;16.50;99.90;;;;;;10495913;28;19928;-85
2021/04/20 09:03:41;;;;;;;;;;;17.10;98.00;;;;;;10493877;28;19925;-85
2021/04/20 09:08:46;;;;;;;;;;;17.60;96.90;;;;;;10483643;28;19933;-85
2021/04/20 09:13:50;;;;;;;;;;;18.50;99.00;;;;;;10492782;28;20291;-85
2021/04/20 09:18:54;;;;;;;;;;;18.00;98.20;;;;;;10494235;27;19928;-85
2021/04/20 09:24:02;;;;;;;;;;;18.90;98.10;;;;;;10493267;28;19931;-85
2021/04/20 09:29:24;;;;;;;;;;;19.30;97.80;;;;;;10493727;28;20367;-85
2021/04/20 09:34:28;;;;;;;;;;;18.10;94.60;;;;;;10628971;27;19923;-85
2021/04/20 09:39:38;;;;;;;;;;;18.10;94.30;;;;;;10668917;27;19958;-85
2021/04/20 09:44:50;;;;;;;;;;;19.60;92.30;;;;;;10668336;27;19972;-85
2021/04/20 09:49:52;;;;;;;;;;;18.90;78.20;;;;;;10617153;27;20294;-84
2021/04/20 09:54:55;;;;;;;;;;;18.80;84.30;;;;;;10492861;28;19928;-86
2021/04/20 10:00:00;;;;;;;;;;;18.30;89.30;;;;;;10493834;28;19924;-86
2021/04/20 10:05:21;;;;;;;;;;;19.00;82.20;;;;;;10531150;23;20014;-86
2021/04/20 10:10:34;;;;;;;;;;;18.60;70.10;;;;;;10625767;27;19929;-85
2021/04/20 10:15:54;;;;;;;;;;;19.30;76.20;;;;;;10623932;27;20342;-88
2021/04/20 10:21:07;;;;;;;;;;;20.10;78.40;;;;;;10624291;27;19988;-88
2021/04/20 10:26:11;;;;;;;;;;;20.30;76.30;;;;;;10623596;27;20017;-87
2021/04/20 10:31:31;;;;;;;;;;;18.80;79.80;;;;;;10613594;28;19992;-85
2021/04/20 10:36:34;;;;;;;;;;;19.00;76.30;;;;;;10623220;28;19931;-86
2021/04/20 10:41:36;;;;;;;;;;;20.20;78.50;;;;;;10625070;27;19927;-85
2021/04/20 10:46:38;;;;;;;;;;;19.30;73.40;;;;;;10622333;28;20289;-85
2021/04/20 10:51:40;;;;;;;;;;;19.60;76.00;;;;;;10624720;27;19923;-85
2021/04/20 10:56:54;;;;;;;;;;;19.70;67.70;;;;;;10605907;28;20301;-85
2021/04/20 11:01:57;;;;;;;;;;;19.10;68.20;;;;;;10623901;27;20385;-84
2021/04/20 11:07:35;;;;;;;;;;;20.40;72.20;;;;;;10623941;27;19927;-84
2021/04/20 11:12:40;;;;;;;;;;;20.20;58.70;;;;;;10545684;27;20408;-85
2021/04/20 11:17:41;;;;;;;;;;;19.60;62.30;;;;;;10580972;28;19930;-85
2021/04/20 11:22:45;;;;;;;;;;;19.40;65.00;;;;;;10590327;28;20018;-85
2021/04/20 11:27:48;;;;;;;;;;;19.50;63.50;;;;;;10581681;28;19930;-85
2021/04/20 11:32:51;;;;;;;;;;;20.50;61.30;;;;;;10581642;28;19930;-85
2021/04/20 11:37:57;;;;;;;;;;;20.10;61.80;;;;;;10589421;27;20289;-86
2021/04/20 11:43:00;;;;;;;;;;;19.60;63.00;;;;;;10629485;27;19924;-90
2021/04/20 11:48:09;;;;;;;;;;;20.20;71.70;;;;;;10630210;27;19947;-87
2021/04/20 11:53:11;;;;;;;;;;;20.20;67.30;;;;;;10629827;27;20290;-85
2021/04/20 11:58:23;;;;;;;;;;;19.90;65.60;;;;;;10631028;27;19927;-85
2021/04/20 12:03:25;;;;;;;;;;;20.00;67.90;;;;;;10630269;27;19923;-85
2021/04/20 12:08:26;;;;;;;;;;;20.50;58.60;;;;;;10630077;27;19948;-87
2021/04/20 12:13:30;;;;;;;;;;;20.50;59.20;;;;;;10628944;27;19972;-85
2021/04/20 12:18:32;;;;;;;;;;;19.60;58.60;;;;;;10629951;27;19929;-85
2021/04/20 12:23:35;;;;;;;;;;;19.90;63.00;;;;;;10619912;27;19970;-86
2021/04/20 12:28:39;;;;;;;;;;;20.40;62.40;;;;;;10610500;27;19929;-87
2021/04/20 12:33:45;;;;;;;;;;;20.90;63.80;;;;;;10623574;27;19924;-88
2021/04/20 12:38:46;;;;;;;;;;;20.70;62.50;;;;;;10628070;27;19924;-88
2021/04/20 12:43:49;;;;;;;;;;;17.50;61.20;;;;;;10610339;27;19930;-89
2021/04/20 12:48:53;;;;;;;;;;;19.50;59.40;;;;;;10601205;27;19924;-88
2021/04/20 12:53:55;;;;;;;;;;;19.20;59.50;;;;;;10603045;27;19967;-89
2021/04/20 12:58:58;;;;;;;;;;;20.40;66.90;;;;;;10626245;27;19924;-88
2021/04/20 13:04:00;;;;;;;;;;;19.70;62.20;;;;;;10618495;27;20461;-88
2021/04/20 13:09:01;;;;;;;;;;;19.30;61.50;;;;;;10618170;27;19927;-89
2021/04/20 13:14:03;;;;;;;;;;;18.80;64.10;;;;;;10625486;27;20349;-88
2021/04/20 13:19:06;;;;;;;;;;;19.40;72.40;;;;;;10627250;27;19967;-89
2021/04/20 13:24:12;;;;;;;;;;;19.90;63.60;;;;;;10624600;27;20022;-89
2021/04/20 13:29:14;;;;;;;;;;;20.10;62.90;;;;;;10584409;28;19983;-88
2021/04/20 13:34:26;;;;;;;;;;;20.00;63.10;;;;;;10582646;28;19963;-89
2021/04/20 13:39:47;;;;;;;;;;;20.20;60.00;;;;;;10608307;27;20015;-87
2021/04/20 13:44:57;;;;;;;;;;;19.40;62.10;;;;;;10623988;27;20278;-87
2021/04/20 13:49:59;;;;;;;;;;;19.10;68.00;;;;;;10621828;27;19954;-87
2021/04/20 13:55:06;;;;;;;;;;;19.40;60.90;;;;;;10588421;27;19927;-87
2021/04/20 14:00:12;;;;;;;;;;;19.40;62.00;;;;;;10577804;28;20035;-88
2021/04/20 14:05:13;;;;;;;;;;;19.90;57.70;;;;;;10601274;27;19963;-88
2021/04/20 14:10:25;;;;;;;;;;;19.90;61.50;;;;;;10589528;27;19923;-87
2021/04/20 14:15:28;;;;;;;;;;;19.50;58.50;;;;;;10598825;27;19924;-88
2021/04/20 14:20:35;;;;;;;;;;;19.20;61.30;;;;;;10624071;27;20011;-87
2021/04/20 14:25:39;;;;;;;;;;;19.10;60.50;;;;;;10623808;27;19923;-87
2021/04/20 14:30:40;;;;;;;;;;;18.60;60.00;;;;;;10623920;28;19930;-88
2021/04/20 14:35:42;;;;;;;;;;;18.30;62.90;;;;;;10625418;27;19923;-87
2021/04/20 14:40:45;;;;;;;;;;;18.30;63.70;;;;;;10624928;27;19923;-88
2021/04/20 14:45:48;;;;;;;;;;;19.20;60.80;;;;;;10624204;27;19930;-87
2021/04/20 14:50:52;;;;;;;;;;;19.40;63.10;;;;;;10589642;27;19931;-87
2021/04/20 14:55:58;;;;;;;;;;;19.30;59.20;;;;;;10578474;28;19934;-88
2021/04/20 15:01:05;;;;;;;;;;;19.30;60.80;;;;;;10580019;28;20287;-89
2021/04/20 15:06:10;;;;;;;;;;;19.50;66.60;;;;;;10613712;28;19930;-86
2021/04/20 15:11:12;;;;;;;;;;;19.20;58.90;;;;;;10619957;28;20562;-87
2021/04/20 15:16:20;;;;;;;;;;;19.10;59.00;;;;;;10621996;27;19931;-87
2021/04/20 15:21:39;;;;;;;;;;;19.00;59.00;;;;;;10625038;27;19923;-86
2021/04/20 15:26:54;;;;;;;;;;;19.00;58.70;;;;;;10614212;27;19929;-86
2021/04/20 15:32:11;;;;;;;;;;;18.70;57.90;;;;;;10630064;27;19928;-87
2021/04/20 15:37:13;;;;;;;;;;;18.70;55.00;;;;;;10612613;27;19928;-86
2021/04/20 15:42:15;;;;;;;;;;;18.80;52.10;;;;;;10616520;27;20407;-87
2021/04/20 15:47:18;;;;;;;;;;;18.90;55.10;;;;;;10580984;28;20084;-87
2021/04/20 15:52:23;;;;;;;;;;;18.90;54.60;;;;;;10586047;28;19924;-86
2021/04/20 15:57:27;;;;;;;;;;;18.90;56.10;;;;;;10585774;28;19923;-86
2021/04/20 16:02:30;;;;;;;;;;;18.90;57.60;;;;;;10586779;28;19924;-87
2021/04/20 16:07:32;;;;;;;;;;;18.80;55.80;;;;;;10583842;28;19924;-87
2021/04/20 16:12:35;;;;;;;;;;;18.70;54.30;;;;;;10583183;27;20026;-86
2021/04/20 16:17:41;;;;;;;;;;;18.70;55.70;;;;;;10619275;27;19930;-87
2021/04/20 16:22:50;;;;;;;;;;;18.50;55.30;;;;;;10628709;27;20362;-88
2021/04/20 16:27:54;;;;;;;;;;;18.50;65.50;;;;;;10626781;27;19930;-88
2021/04/20 16:32:59;;;;;;;;;;;18.30;55.80;;;;;;10627906;27;20017;-87
2021/04/20 16:38:23;;;;;;;;;;;18.60;57.30;;;;;;10628511;27;19924;-88
2021/04/20 16:43:25;;;;;;;;;;;18.10;60.10;;;;;;10572593;27;20290;-87
2021/04/20 16:53:44;;;;;;;;;;;17.80;64.80;;;;;;10209640;29;19934;-88
2021/04/20 16:59:04;;;;;;;;;;;17.80;66.90;;;;;;10225403;29;20357;-86
2021/04/20 17:04:10;;;;;;;;;;;17.60;69.60;;;;;;10211133;28;19927;-88
2021/04/20 17:09:12;;;;;;;;;;;17.60;68.10;;;;;;10209896;28;20388;-88
2021/04/20 17:14:14;;;;;;;;;;;17.50;68.00;;;;;;10237184;28;19933;-88
2021/04/20 17:19:24;;;;;;;;;;;17.50;73.80;;;;;;10210572;28;19938;-88
2021/04/20 17:24:28;;;;;;;;;;;17.30;74.10;;;;;;10210638;29;19933;-88
2021/04/20 17:29:37;;;;;;;;;;;17.00;76.10;;;;;;10222886;28;19930;-88
2021/04/20 17:34:58;;;;;;;;;;;17.00;78.90;;;;;;10208712;29;19934;-88
2021/04/20 17:40:06;;;;;;;;;;;16.80;79.50;;;;;;10229335;28;19936;-88
2021/04/20 17:45:19;;;;;;;;;;;16.60;83.20;;;;;;10378364;28;19926;-87
2021/04/20 17:50:30;;;;;;;;;;;16.30;85.80;;;;;;10314954;28;19933;-87
2021/04/20 17:55:34;;;;;;;;;;;16.10;89.20;;;;;;10287058;28;20367;-88
2021/04/20 18:00:56;;;;;;;;;;;15.90;89.30;;;;;;10288262;28;19926;-88
2021/04/20 18:06:00;;;;;;;;;;;15.70;91.40;;;;;;10288879;28;19927;-87
2021/04/20 18:11:09;;;;;;;;;;;15.40;92.10;;;;;;10286707;28;19934;-88
2021/04/20 18:16:14;;;;;;;;;;;15.20;94.40;;;;;;10287752;28;20278;-88
2021/04/20 18:21:33;;;;;;;;;;;15.00;95.70;;;;;;10282691;28;19926;-87
2021/04/20 18:26:47;;;;;;;;;;;14.60;96.70;;;;;;10287628;28;20017;-87
2021/04/20 18:32:08;;;;;;;;;;;14.40;97.30;;;;;;10359977;28;19926;-87
2021/04/20 18:37:15;;;;;;;;;;;14.10;98.90;;;;;;10290169;28;19995;-88
2021/04/20 18:42:46;;;;;;;;;;;13.90;99.90;;;;;;10291747;28;19926;-87
2021/04/20 18:47:54;;;;;;;;;;;13.90;99.80;;;;;;10317789;28;19930;-87
2021/04/20 18:53:10;;;;;;;;;;;13.80;99.90;;;;;;10298500;28;19932;-87
2021/04/20 18:58:28;;;;;;;;;;;13.80;99.90;;;;;;10438541;28;20016;-87
2021/04/20 19:03:31;;;;;;;;;;;13.80;99.30;;;;;;10276726;28;19933;-87
2021/04/20 19:08:39;;;;;;;;;;;13.80;99.30;;;;;;10433408;28;19925;-87
2021/04/20 19:14:00;;;;;;;;;;;13.70;99.90;;;;;;10296724;28;20377;-87
2021/04/20 19:19:07;;;;;;;;;;;13.60;99.90;;;;;;10292307;28;20217;-88
2021/04/20 19:24:27;;;;;;;;;;;13.30;99.90;;;;;;10279585;28;19927;-88
2021/04/20 19:29:40;;;;;;;;;;;13.00;99.90;;;;;;10287525;28;20366;-87
2021/04/20 19:34:45;;;;;;;;;;;12.80;99.90;;;;;;10350931;28;20375;-88
2021/04/20 19:40:04;;;;;;;;;;;12.50;99.90;;;;;;10293392;28;20001;-88
2021/04/20 19:45:11;;;;;;;;;;;12.20;99.90;;;;;;10294125;28;19926;-88
2021/04/20 19:50:17;;;;;;;;;;;12.10;99.90;;;;;;10375902;28;20008;-88
2021/04/20 19:55:25;;;;;;;;;;;11.80;99.90;;;;;;10260824;28;19934;-88
2021/04/20 20:00:29;;;;;;;;;;;11.90;99.90;;;;;;10287857;28;20040;-88
2021/04/20 20:05:31;;;;;;;;;;;11.70;99.90;;;;;;10274941;28;19969;-88
2021/04/20 20:10:34;;;;;;;;;;;11.40;99.90;;;;;;10357255;28;20021;-88
2021/04/20 20:15:37;;;;;;;;;;;11.50;99.90;;;;;;10290467;28;19933;-88
2021/04/20 20:20:47;;;;;;;;;;;11.40;99.90;;;;;;10291853;28;19926;-87
2021/04/20 20:25:49;;;;;;;;;;;11.40;99.90;;;;;;10292048;28;19980;-88
2021/04/20 20:31:03;;;;;;;;;;;11.40;99.90;;;;;;10290344;28;20762;-88
2021/04/20 20:36:06;;;;;;;;;;;11.40;99.90;;;;;;10322137;28;19924;-88
2021/04/20 20:41:12;;;;;;;;;;;11.30;99.90;;;;;;10484802;28;19924;-88
2021/04/20 20:46:15;;;;;;;;;;;11.20;99.90;;;;;;10502618;28;19931;-87
2021/04/20 20:51:16;;;;;;;;;;;11.10;99.90;;;;;;10500556;28;19924;-87
2021/04/20 20:56:37;;;;;;;;;;;11.30;99.90;;;;;;10484276;28;19926;-87
2021/04/20 21:01:41;;;;;;;;;;;10.80;99.90;;;;;;10289706;28;19926;-88
2021/04/20 21:06:47;;;;;;;;;;;10.70;99.90;;;;;;10292066;28;19981;-87
2021/04/20 21:11:48;;;;;;;;;;;10.60;99.90;;;;;;10272752;28;20296;-87
2021/04/20 21:16:54;;;;;;;;;;;10.50;99.90;;;;;;10374067;28;19927;-87
2021/04/20 21:21:56;;;;;;;;;;;10.40;99.90;;;;;;10290878;28;19932;-87
2021/04/20 21:27:00;;;;;;;;;;;10.40;99.90;;;;;;10289944;28;20308;-87
2021/04/20 21:32:03;;;;;;;;;;;10.40;99.90;;;;;;10271923;28;19937;-87
2021/04/20 21:37:14;;;;;;;;;;;10.10;99.90;;;;;;10301338;28;19928;-87
2021/04/20 21:42:17;;;;;;;;;;;10.30;99.90;;;;;;10429382;28;19926;-87
2021/04/20 21:47:25;;;;;;;;;;;10.10;99.90;;;;;;10355979;28;19992;-87
2021/04/20 21:52:28;;;;;;;;;;;9.80;99.90;;;;;;10289344;28;20389;-87
2021/04/20 21:57:31;;;;;;;;;;;9.80;99.90;;;;;;10387776;28;19931;-87
2021/04/20 22:02:33;;;;;;;;;;;9.60;99.90;;;;;;10403672;28;19928;-87
2021/04/20 22:07:49;;;;;;;;;;;9.50;99.90;;;;;;10286501;28;19926;-87
2021/04/20 22:12:50;;;;;;;;;;;9.40;99.90;;;;;;10286734;28;20400;-87
2021/04/20 22:17:52;;;;;;;;;;;9.50;99.90;;;;;;10287273;28;19930;-87
2021/04/20 22:22:54;;;;;;;;;;;9.40;99.90;;;;;;10286066;28;19926;-87
2021/04/20 22:28:02;;;;;;;;;;;9.40;99.90;;;;;;10287388;28;20292;-87
2021/04/20 22:33:08;;;;;;;;;;;9.40;99.90;;;;;;10287806;28;19930;-87
2021/04/20 22:38:29;;;;;;;;;;;9.20;99.90;;;;;;10271835;28;19926;-87
2021/04/20 22:43:32;;;;;;;;;;;9.10;99.90;;;;;;10270485;28;19926;-87
2021/04/20 22:48:33;;;;;;;;;;;9.10;99.90;;;;;;10288566;28;19961;-87
2021/04/20 22:53:37;;;;;;;;;;;8.90;99.90;;;;;;10262543;28;20009;-87
2021/04/20 22:58:44;;;;;;;;;;;8.90;99.90;;;;;;10263067;28;19927;-89
2021/04/20 23:04:03;;;;;;;;;;;9.10;99.90;;;;;;10272532;23;20018;-86
2021/04/20 23:09:08;;;;;;;;;;;8.70;99.90;;;;;;10328008;28;19926;-85
2021/04/20 23:14:23;;;;;;;;;;;8.60;99.90;;;;;;10326381;28;19925;-85
2021/04/20 23:19:25;;;;;;;;;;;8.60;99.90;;;;;;10326133;28;19948;-85
2021/04/20 23:24:33;;;;;;;;;;;8.90;99.90;;;;;;10325287;28;20013;-85
2021/04/20 23:29:54;;;;;;;;;;;8.50;99.90;;;;;;10286303;28;19926;-85
2021/04/20 23:34:56;;;;;;;;;;;8.30;99.90;;;;;;10298161;28;20376;-85
2021/04/20 23:39:58;;;;;;;;;;;10.10;99.90;;;;;;10333404;28;19981;-85
2021/04/20 23:45:00;;;;;;;;;;;8.60;99.90;;;;;;10332724;28;19925;-85
2021/04/20 23:50:04;;;;;;;;;;;10.40;99.90;;;;;;10307424;28;20295;-85
2021/04/20 23:55:07;;;;;;;;;;;8.10;99.90;;;;;;10292535;28;19932;-85
